sensor_id;sensor_type;location;lat;lon;timestamp;P1;durP1;ratioP1;P2;durP2;ratioP2
17566;SDS011;8901;52.088;5.084;2022-11-20T00:01:27;28.10;;;25.63;;
17566;SDS011;8901;52.088;5.084;2022-11-20T00:03:56;27.47;;;25.23;;
17566;SDS011;8901;52.088;5.084;2022-11-20T00:06:24;31.27;;;28.60;;
17566;SDS011;8901;52.088;5.084;2022-11-20T00:08:53;30.27;;;27.67;;
17566;SDS011;8901;52.088;5.084;2022-11-20T00:17:02;32.97;;;30.00;;
17566;SDS011;8901;52.088;5.084;2022-11-20T00:19:35;31.77;;;28.63;;
17566;SDS011;8901;52.088;5.084;2022-11-20T00:22:11;29.73;;;27.20;;
17566;SDS011;8901;52.088;5.084;2022-11-20T00:24:41;31.23;;;28.53;;
17566;SDS011;8901;52.088;5.084;2022-11-20T00:27:09;31.17;;;28.43;;
17566;SDS011;8901;52.088;5.084;2022-11-20T00:29:41;30.83;;;28.33;;
17566;SDS011;8901;52.088;5.084;2022-11-20T00:32:20;30.70;;;28.03;;
17566;SDS011;8901;52.088;5.084;2022-11-20T00:37:56;29.93;;;27.37;;
17566;SDS011;8901;52.088;5.084;2022-11-20T00:40:26;28.80;;;26.50;;
17566;SDS011;8901;52.088;5.084;2022-11-20T00:45:58;27.27;;;24.97;;
17566;SDS011;8901;52.088;5.084;2022-11-20T00:48:27;27.10;;;24.90;;
17566;SDS011;8901;52.088;5.084;2022-11-20T00:50:54;28.13;;;25.70;;
17566;SDS011;8901;52.088;5.084;2022-11-20T00:53:29;27.67;;;25.37;;
17566;SDS011;8901;52.088;5.084;2022-11-20T00:55:58;28.10;;;25.60;;
17566;SDS011;8901;52.088;5.084;2022-11-20T00:58:35;27.07;;;24.77;;
17566;SDS011;8901;52.088;5.084;2022-11-20T01:01:05;27.23;;;24.93;;
17566;SDS011;8901;52.088;5.084;2022-11-20T01:03:50;26.57;;;24.33;;
17566;SDS011;8901;52.088;5.084;2022-11-20T01:06:24;27.90;;;25.50;;
17566;SDS011;8901;52.088;5.084;2022-11-20T01:09:05;29.17;;;26.87;;
17566;SDS011;8901;52.088;5.084;2022-11-20T01:11:40;28.77;;;26.37;;
17566;SDS011;8901;52.088;5.084;2022-11-20T01:16:59;29.40;;;26.93;;
17566;SDS011;8901;52.088;5.084;2022-11-20T01:19:39;27.60;;;25.40;;
17566;SDS011;8901;52.088;5.084;2022-11-20T01:22:09;22.63;;;20.57;;
17566;SDS011;8901;52.088;5.084;2022-11-20T01:32:36;25.43;;;23.33;;
17566;SDS011;8901;52.088;5.084;2022-11-20T01:35:05;25.30;;;23.00;;
17566;SDS011;8901;52.088;5.084;2022-11-20T01:37:37;28.27;;;25.83;;
17566;SDS011;8901;52.088;5.084;2022-11-20T01:43:00;26.43;;;24.23;;
17566;SDS011;8901;52.088;5.084;2022-11-20T01:54:39;26.43;;;24.23;;
17566;SDS011;8901;52.088;5.084;2022-11-20T01:57:17;27.60;;;25.30;;
17566;SDS011;8901;52.088;5.084;2022-11-20T01:59:52;27.30;;;25.20;;
17566;SDS011;8901;52.088;5.084;2022-11-20T02:02:25;27.33;;;25.03;;
17566;SDS011;8901;52.088;5.084;2022-11-20T02:05:02;27.30;;;25.20;;
17566;SDS011;8901;52.088;5.084;2022-11-20T02:07:33;28.43;;;26.13;;
17566;SDS011;8901;52.088;5.084;2022-11-20T02:27:02;28.03;;;25.73;;
17566;SDS011;8901;52.088;5.084;2022-11-20T02:29:33;27.10;;;24.87;;
17566;SDS011;8901;52.088;5.084;2022-11-20T02:32:06;27.33;;;25.10;;
17566;SDS011;8901;52.088;5.084;2022-11-20T02:34:46;26.67;;;24.33;;
17566;SDS011;8901;52.088;5.084;2022-11-20T02:37:14;27.47;;;25.37;;
17566;SDS011;8901;52.088;5.084;2022-11-20T02:39:52;26.90;;;24.73;;
17566;SDS011;8901;52.088;5.084;2022-11-20T02:42:21;26.13;;;24.03;;
17566;SDS011;8901;52.088;5.084;2022-11-20T02:47:40;25.57;;;23.37;;
17566;SDS011;8901;52.088;5.084;2022-11-20T02:53:01;25.57;;;23.57;;
17566;SDS011;8901;52.088;5.084;2022-11-20T02:55:28;25.67;;;23.67;;
17566;SDS011;8901;52.088;5.084;2022-11-20T02:57:57;25.00;;;23.13;;
17566;SDS011;8901;52.088;5.084;2022-11-20T03:00:24;25.90;;;23.83;;
17566;SDS011;8901;52.088;5.084;2022-11-20T03:02:51;24.93;;;23.00;;
17566;SDS011;8901;52.088;5.084;2022-11-20T03:05:18;24.87;;;22.67;;
17566;SDS011;8901;52.088;5.084;2022-11-20T03:07:45;25.93;;;23.83;;
17566;SDS011;8901;52.088;5.084;2022-11-20T03:10:12;24.20;;;22.30;;
17566;SDS011;8901;52.088;5.084;2022-11-20T03:12:39;25.47;;;23.17;;
17566;SDS011;8901;52.088;5.084;2022-11-20T03:15:09;24.63;;;22.63;;
17566;SDS011;8901;52.088;5.084;2022-11-20T03:17:36;25.97;;;23.77;;
17566;SDS011;8901;52.088;5.084;2022-11-20T03:20:04;23.67;;;21.77;;
17566;SDS011;8901;52.088;5.084;2022-11-20T03:22:31;25.03;;;23.13;;
17566;SDS011;8901;52.088;5.084;2022-11-20T03:24:58;24.63;;;22.83;;
17566;SDS011;8901;52.088;5.084;2022-11-20T03:27:26;25.77;;;23.77;;
17566;SDS011;8901;52.088;5.084;2022-11-20T03:32:37;26.50;;;24.50;;
17566;SDS011;8901;52.088;5.084;2022-11-20T03:35:04;25.87;;;23.97;;
17566;SDS011;8901;52.088;5.084;2022-11-20T03:37:32;22.90;;;21.20;;
17566;SDS011;8901;52.088;5.084;2022-11-20T03:39:59;24.83;;;22.93;;
17566;SDS011;8901;52.088;5.084;2022-11-20T03:42:26;25.53;;;23.43;;
17566;SDS011;8901;52.088;5.084;2022-11-20T03:45:11;26.07;;;23.87;;
17566;SDS011;8901;52.088;5.084;2022-11-20T03:47:40;26.87;;;24.67;;
17566;SDS011;8901;52.088;5.084;2022-11-20T03:50:08;25.93;;;23.67;;
17566;SDS011;8901;52.088;5.084;2022-11-20T03:52:35;26.77;;;24.77;;
17566;SDS011;8901;52.088;5.084;2022-11-20T03:55:03;27.03;;;24.93;;
17566;SDS011;8901;52.088;5.084;2022-11-20T03:57:30;26.33;;;24.30;;
17566;SDS011;8901;52.088;5.084;2022-11-20T03:59:57;27.23;;;25.03;;
17566;SDS011;8901;52.088;5.084;2022-11-20T04:02:24;27.93;;;25.63;;
17566;SDS011;8901;52.088;5.084;2022-11-20T04:04:53;27.23;;;25.03;;
17566;SDS011;8901;52.088;5.084;2022-11-20T04:07:20;26.73;;;24.63;;
17566;SDS011;8901;52.088;5.084;2022-11-20T04:09:47;27.57;;;25.27;;
17566;SDS011;8901;52.088;5.084;2022-11-20T04:12:14;26.03;;;23.90;;
17566;SDS011;8901;52.088;5.084;2022-11-20T04:14:41;26.47;;;24.13;;
17566;SDS011;8901;52.088;5.084;2022-11-20T04:17:08;25.53;;;23.47;;
17566;SDS011;8901;52.088;5.084;2022-11-20T04:19:36;26.10;;;24.00;;
17566;SDS011;8901;52.088;5.084;2022-11-20T04:22:04;25.03;;;23.03;;
17566;SDS011;8901;52.088;5.084;2022-11-20T04:24:31;25.50;;;23.50;;
17566;SDS011;8901;52.088;5.084;2022-11-20T04:26:58;25.33;;;23.33;;
17566;SDS011;8901;52.088;5.084;2022-11-20T04:29:26;26.00;;;24.00;;
17566;SDS011;8901;52.088;5.084;2022-11-20T04:31:53;24.90;;;23.10;;
17566;SDS011;8901;52.088;5.084;2022-11-20T04:34:20;24.50;;;22.60;;
17566;SDS011;8901;52.088;5.084;2022-11-20T04:36:47;25.67;;;23.67;;
17566;SDS011;8901;52.088;5.084;2022-11-20T04:39:16;26.93;;;24.93;;
17566;SDS011;8901;52.088;5.084;2022-11-20T04:41:43;26.53;;;24.40;;
17566;SDS011;8901;52.088;5.084;2022-11-20T04:44:11;25.37;;;23.50;;
17566;SDS011;8901;52.088;5.084;2022-11-20T04:46:39;25.27;;;23.37;;
17566;SDS011;8901;52.088;5.084;2022-11-20T04:49:06;25.67;;;23.73;;
17566;SDS011;8901;52.088;5.084;2022-11-20T04:51:34;25.53;;;23.50;;
17566;SDS011;8901;52.088;5.084;2022-11-20T04:54:01;25.53;;;23.60;;
17566;SDS011;8901;52.088;5.084;2022-11-20T04:56:29;25.13;;;22.93;;
17566;SDS011;8901;52.088;5.084;2022-11-20T04:58:59;25.30;;;23.37;;
17566;SDS011;8901;52.088;5.084;2022-11-20T05:01:26;24.90;;;23.10;;
17566;SDS011;8901;52.088;5.084;2022-11-20T05:03:53;25.23;;;23.23;;
17566;SDS011;8901;52.088;5.084;2022-11-20T05:06:22;25.17;;;23.30;;
17566;SDS011;8901;52.088;5.084;2022-11-20T05:08:49;24.43;;;22.63;;
17566;SDS011;8901;52.088;5.084;2022-11-20T05:11:17;25.27;;;23.17;;
17566;SDS011;8901;52.088;5.084;2022-11-20T05:13:46;26.87;;;23.97;;
17566;SDS011;8901;52.088;5.084;2022-11-20T05:16:13;26.10;;;23.97;;
17566;SDS011;8901;52.088;5.084;2022-11-20T05:18:41;27.17;;;25.07;;
17566;SDS011;8901;52.088;5.084;2022-11-20T05:21:09;25.37;;;23.47;;
17566;SDS011;8901;52.088;5.084;2022-11-20T05:23:36;25.50;;;23.60;;
17566;SDS011;8901;52.088;5.084;2022-11-20T05:26:04;25.50;;;23.60;;
17566;SDS011;8901;52.088;5.084;2022-11-20T05:28:32;25.57;;;23.67;;
17566;SDS011;8901;52.088;5.084;2022-11-20T05:31:05;26.57;;;24.37;;
17566;SDS011;8901;52.088;5.084;2022-11-20T05:33:32;25.50;;;23.47;;
17566;SDS011;8901;52.088;5.084;2022-11-20T05:36:00;25.77;;;23.67;;
17566;SDS011;8901;52.088;5.084;2022-11-20T05:38:27;25.80;;;23.80;;
17566;SDS011;8901;52.088;5.084;2022-11-20T05:40:54;27.13;;;24.87;;
17566;SDS011;8901;52.088;5.084;2022-11-20T05:43:21;26.63;;;24.53;;
17566;SDS011;8901;52.088;5.084;2022-11-20T05:45:52;27.07;;;24.97;;
17566;SDS011;8901;52.088;5.084;2022-11-20T05:48:21;26.67;;;24.67;;
17566;SDS011;8901;52.088;5.084;2022-11-20T05:50:48;25.50;;;23.50;;
17566;SDS011;8901;52.088;5.084;2022-11-20T05:53:15;24.57;;;22.67;;
17566;SDS011;8901;52.088;5.084;2022-11-20T05:55:43;25.80;;;23.70;;
17566;SDS011;8901;52.088;5.084;2022-11-20T05:58:10;25.50;;;23.60;;
17566;SDS011;8901;52.088;5.084;2022-11-20T06:00:37;25.60;;;23.60;;
17566;SDS011;8901;52.088;5.084;2022-11-20T06:03:04;25.10;;;23.10;;
17566;SDS011;8901;52.088;5.084;2022-11-20T06:05:34;24.87;;;22.97;;
17566;SDS011;8901;52.088;5.084;2022-11-20T06:08:01;25.37;;;23.47;;
17566;SDS011;8901;52.088;5.084;2022-11-20T06:10:29;26.20;;;24.20;;
17566;SDS011;8901;52.088;5.084;2022-11-20T06:12:57;25.53;;;23.57;;
17566;SDS011;8901;52.088;5.084;2022-11-20T06:15:24;25.70;;;23.70;;
17566;SDS011;8901;52.088;5.084;2022-11-20T06:17:51;25.00;;;23.03;;
17566;SDS011;8901;52.088;5.084;2022-11-20T06:20:19;23.07;;;21.37;;
17566;SDS011;8901;52.088;5.084;2022-11-20T06:22:47;25.13;;;23.23;;
17566;SDS011;8901;52.088;5.084;2022-11-20T06:25:14;25.07;;;23.17;;
17566;SDS011;8901;52.088;5.084;2022-11-20T06:27:42;26.67;;;24.53;;
17566;SDS011;8901;52.088;5.084;2022-11-20T06:30:09;24.33;;;22.40;;
17566;SDS011;8901;52.088;5.084;2022-11-20T06:32:36;25.90;;;23.90;;
17566;SDS011;8901;52.088;5.084;2022-11-20T06:35:04;26.63;;;24.43;;
17566;SDS011;8901;52.088;5.084;2022-11-20T06:37:31;25.93;;;23.80;;
17566;SDS011;8901;52.088;5.084;2022-11-20T06:40:00;24.17;;;22.27;;
17566;SDS011;8901;52.088;5.084;2022-11-20T06:42:27;25.53;;;23.53;;
17566;SDS011;8901;52.088;5.084;2022-11-20T06:44:54;26.43;;;24.33;;
17566;SDS011;8901;52.088;5.084;2022-11-20T06:47:21;25.13;;;23.23;;
17566;SDS011;8901;52.088;5.084;2022-11-20T06:49:48;25.33;;;23.43;;
17566;SDS011;8901;52.088;5.084;2022-11-20T06:52:16;25.53;;;23.53;;
17566;SDS011;8901;52.088;5.084;2022-11-20T06:54:43;25.80;;;23.77;;
17566;SDS011;8901;52.088;5.084;2022-11-20T06:57:12;26.27;;;24.17;;
17566;SDS011;8901;52.088;5.084;2022-11-20T06:59:39;27.00;;;24.83;;
17566;SDS011;8901;52.088;5.084;2022-11-20T07:02:08;26.90;;;24.77;;
17566;SDS011;8901;52.088;5.084;2022-11-20T07:04:36;26.80;;;24.70;;
17566;SDS011;8901;52.088;5.084;2022-11-20T07:07:03;25.63;;;23.37;;
17566;SDS011;8901;52.088;5.084;2022-11-20T07:09:31;26.20;;;24.10;;
17566;SDS011;8901;52.088;5.084;2022-11-20T07:11:58;26.33;;;24.33;;
17566;SDS011;8901;52.088;5.084;2022-11-20T07:14:27;26.17;;;24.00;;
17566;SDS011;8901;52.088;5.084;2022-11-20T07:16:54;24.20;;;22.40;;
17566;SDS011;8901;52.088;5.084;2022-11-20T07:19:21;23.67;;;21.77;;
17566;SDS011;8901;52.088;5.084;2022-11-20T07:21:48;23.47;;;21.53;;
17566;SDS011;8901;52.088;5.084;2022-11-20T07:24:15;25.03;;;22.77;;
17566;SDS011;8901;52.088;5.084;2022-11-20T07:26:45;26.47;;;24.30;;
17566;SDS011;8901;52.088;5.084;2022-11-20T07:29:13;26.20;;;24.00;;
17566;SDS011;8901;52.088;5.084;2022-11-20T07:31:41;26.20;;;24.10;;
17566;SDS011;8901;52.088;5.084;2022-11-20T07:43:06;26.83;;;24.73;;
17566;SDS011;8901;52.088;5.084;2022-11-20T07:45:33;24.03;;;22.23;;
17566;SDS011;8901;52.088;5.084;2022-11-20T07:48:02;26.73;;;24.63;;
17566;SDS011;8901;52.088;5.084;2022-11-20T07:50:29;25.73;;;23.77;;
17566;SDS011;8901;52.088;5.084;2022-11-20T07:53:00;24.80;;;22.90;;
17566;SDS011;8901;52.088;5.084;2022-11-20T07:55:27;25.10;;;23.20;;
17566;SDS011;8901;52.088;5.084;2022-11-20T07:57:54;26.60;;;24.50;;
17566;SDS011;8901;52.088;5.084;2022-11-20T08:00:22;27.03;;;24.93;;
17566;SDS011;8901;52.088;5.084;2022-11-20T08:02:49;26.90;;;24.90;;
17566;SDS011;8901;52.088;5.084;2022-11-20T08:05:18;27.57;;;25.37;;
17566;SDS011;8901;52.088;5.084;2022-11-20T08:07:45;26.07;;;23.97;;
17566;SDS011;8901;52.088;5.084;2022-11-20T08:10:13;26.73;;;24.53;;
17566;SDS011;8901;52.088;5.084;2022-11-20T08:12:44;27.43;;;24.97;;
17566;SDS011;8901;52.088;5.084;2022-11-20T08:15:29;25.83;;;23.83;;
17566;SDS011;8901;52.088;5.084;2022-11-20T08:18:00;27.87;;;25.37;;
17566;SDS011;8901;52.088;5.084;2022-11-20T08:20:29;25.97;;;24.00;;
17566;SDS011;8901;52.088;5.084;2022-11-20T08:22:59;25.13;;;23.20;;
17566;SDS011;8901;52.088;5.084;2022-11-20T08:25:27;26.97;;;24.97;;
17566;SDS011;8901;52.088;5.084;2022-11-20T08:27:56;25.20;;;23.33;;
17566;SDS011;8901;52.088;5.084;2022-11-20T08:30:23;25.93;;;23.73;;
17566;SDS011;8901;52.088;5.084;2022-11-20T08:32:50;24.37;;;22.57;;
17566;SDS011;8901;52.088;5.084;2022-11-20T08:35:17;25.13;;;23.23;;
17566;SDS011;8901;52.088;5.084;2022-11-20T08:37:47;27.27;;;25.13;;
17566;SDS011;8901;52.088;5.084;2022-11-20T08:40:14;25.83;;;23.70;;
17566;SDS011;8901;52.088;5.084;2022-11-20T08:42:48;28.17;;;25.83;;
17566;SDS011;8901;52.088;5.084;2022-11-20T08:45:15;26.63;;;24.47;;
17566;SDS011;8901;52.088;5.084;2022-11-20T08:47:43;27.60;;;25.50;;
17566;SDS011;8901;52.088;5.084;2022-11-20T08:50:10;27.47;;;25.13;;
17566;SDS011;8901;52.088;5.084;2022-11-20T08:52:38;25.90;;;23.83;;
17566;SDS011;8901;52.088;5.084;2022-11-20T08:55:07;26.97;;;24.77;;
17566;SDS011;8901;52.088;5.084;2022-11-20T08:57:35;28.70;;;26.47;;
17566;SDS011;8901;52.088;5.084;2022-11-20T09:00:03;29.07;;;26.77;;
17566;SDS011;8901;52.088;5.084;2022-11-20T09:02:30;25.93;;;23.80;;
17566;SDS011;8901;52.088;5.084;2022-11-20T09:04:58;26.53;;;24.20;;
17566;SDS011;8901;52.088;5.084;2022-11-20T09:07:27;25.27;;;23.17;;
17566;SDS011;8901;52.088;5.084;2022-11-20T09:09:54;27.37;;;25.10;;
17566;SDS011;8901;52.088;5.084;2022-11-20T09:12:25;25.13;;;23.10;;
17566;SDS011;8901;52.088;5.084;2022-11-20T09:14:52;27.23;;;24.90;;
17566;SDS011;8901;52.088;5.084;2022-11-20T09:17:19;26.90;;;24.80;;
17566;SDS011;8901;52.088;5.084;2022-11-20T09:19:47;28.73;;;26.33;;
17566;SDS011;8901;52.088;5.084;2022-11-20T09:22:14;28.83;;;26.43;;
17566;SDS011;8901;52.088;5.084;2022-11-20T09:24:41;27.70;;;25.47;;
17566;SDS011;8901;52.088;5.084;2022-11-20T09:27:08;26.90;;;24.60;;
17566;SDS011;8901;52.088;5.084;2022-11-20T09:29:37;24.17;;;22.17;;
17566;SDS011;8901;52.088;5.084;2022-11-20T09:32:20;24.83;;;22.63;;
17566;SDS011;8901;52.088;5.084;2022-11-20T09:34:47;27.53;;;25.23;;
17566;SDS011;8901;52.088;5.084;2022-11-20T09:37:16;23.93;;;22.03;;
17566;SDS011;8901;52.088;5.084;2022-11-20T09:39:43;21.20;;;19.37;;
17566;SDS011;8901;52.088;5.084;2022-11-20T09:42:17;20.97;;;19.00;;
17566;SDS011;8901;52.088;5.084;2022-11-20T09:44:57;22.33;;;20.33;;
17566;SDS011;8901;52.088;5.084;2022-11-20T09:47:31;26.90;;;24.57;;
17566;SDS011;8901;52.088;5.084;2022-11-20T09:50:05;26.37;;;24.17;;
17566;SDS011;8901;52.088;5.084;2022-11-20T09:52:37;28.87;;;26.27;;
17566;SDS011;8901;52.088;5.084;2022-11-20T09:55:11;29.37;;;26.77;;
17566;SDS011;8901;52.088;5.084;2022-11-20T09:57:40;24.80;;;22.47;;
17566;SDS011;8901;52.088;5.084;2022-11-20T10:00:11;20.90;;;19.03;;
17566;SDS011;8901;52.088;5.084;2022-11-20T10:02:40;26.03;;;23.73;;
17566;SDS011;8901;52.088;5.084;2022-11-20T10:05:09;22.93;;;20.97;;
17566;SDS011;8901;52.088;5.084;2022-11-20T10:07:38;22.70;;;20.60;;
17566;SDS011;8901;52.088;5.084;2022-11-20T10:10:13;23.63;;;21.43;;
17566;SDS011;8901;52.088;5.084;2022-11-20T10:12:46;26.37;;;24.20;;
17566;SDS011;8901;52.088;5.084;2022-11-20T10:15:22;24.13;;;21.93;;
17566;SDS011;8901;52.088;5.084;2022-11-20T10:17:56;24.10;;;21.80;;
17566;SDS011;8901;52.088;5.084;2022-11-20T10:20:27;26.97;;;24.47;;
17566;SDS011;8901;52.088;5.084;2022-11-20T10:23:00;26.80;;;24.20;;
17566;SDS011;8901;52.088;5.084;2022-11-20T10:25:33;25.47;;;23.17;;
17566;SDS011;8901;52.088;5.084;2022-11-20T10:28:15;25.80;;;23.33;;
17566;SDS011;8901;52.088;5.084;2022-11-20T10:30:45;24.63;;;22.47;;
17566;SDS011;8901;52.088;5.084;2022-11-20T10:33:13;22.90;;;20.83;;
17566;SDS011;8901;52.088;5.084;2022-11-20T10:35:43;24.43;;;22.23;;
17566;SDS011;8901;52.088;5.084;2022-11-20T10:38:12;23.70;;;21.60;;
17566;SDS011;8901;52.088;5.084;2022-11-20T10:40:43;23.57;;;21.37;;
17566;SDS011;8901;52.088;5.084;2022-11-20T10:43:12;23.93;;;21.73;;
17566;SDS011;8901;52.088;5.084;2022-11-20T10:45:44;23.73;;;21.53;;
17566;SDS011;8901;52.088;5.084;2022-11-20T10:48:16;22.23;;;20.27;;
17566;SDS011;8901;52.088;5.084;2022-11-20T10:53:33;23.33;;;21.23;;
17566;SDS011;8901;52.088;5.084;2022-11-20T10:56:05;25.20;;;22.90;;
17566;SDS011;8901;52.088;5.084;2022-11-20T10:58:35;26.37;;;24.27;;
17566;SDS011;8901;52.088;5.084;2022-11-20T11:01:13;25.23;;;23.03;;
17566;SDS011;8901;52.088;5.084;2022-11-20T11:03:42;25.07;;;22.83;;
17566;SDS011;8901;52.088;5.084;2022-11-20T11:06:10;24.00;;;21.63;;
17566;SDS011;8901;52.088;5.084;2022-11-20T11:08:40;24.13;;;21.93;;
17566;SDS011;8901;52.088;5.084;2022-11-20T11:11:21;29.53;;;26.83;;
17566;SDS011;8901;52.088;5.084;2022-11-20T11:13:48;29.70;;;27.10;;
17566;SDS011;8901;52.088;5.084;2022-11-20T11:16:17;29.47;;;26.37;;
17566;SDS011;8901;52.088;5.084;2022-11-20T11:18:47;28.80;;;26.23;;
17566;SDS011;8901;52.088;5.084;2022-11-20T11:21:19;27.37;;;24.93;;
17566;SDS011;8901;52.088;5.084;2022-11-20T11:23:48;29.87;;;26.73;;
17566;SDS011;8901;52.088;5.084;2022-11-20T11:26:23;30.17;;;27.20;;
17566;SDS011;8901;52.088;5.084;2022-11-20T11:28:54;28.73;;;25.83;;
17566;SDS011;8901;52.088;5.084;2022-11-20T11:31:22;30.60;;;27.70;;
17566;SDS011;8901;52.088;5.084;2022-11-20T11:33:51;32.03;;;28.63;;
17566;SDS011;8901;52.088;5.084;2022-11-20T11:36:19;31.67;;;28.50;;
17566;SDS011;8901;52.088;5.084;2022-11-20T11:38:48;32.03;;;28.93;;
17566;SDS011;8901;52.088;5.084;2022-11-20T11:41:19;27.27;;;24.77;;
17566;SDS011;8901;52.088;5.084;2022-11-20T11:43:50;31.23;;;28.30;;
17566;SDS011;8901;52.088;5.084;2022-11-20T11:46:36;27.60;;;25.00;;
17566;SDS011;8901;52.088;5.084;2022-11-20T11:49:15;26.67;;;24.17;;
17566;SDS011;8901;52.088;5.084;2022-11-20T11:51:46;27.33;;;24.63;;
17566;SDS011;8901;52.088;5.084;2022-11-20T11:54:17;29.10;;;26.20;;
17566;SDS011;8901;52.088;5.084;2022-11-20T11:56:46;28.23;;;25.70;;
17566;SDS011;8901;52.088;5.084;2022-11-20T11:59:15;29.33;;;26.20;;
17566;SDS011;8901;52.088;5.084;2022-11-20T12:01:44;29.53;;;26.63;;
17566;SDS011;8901;52.088;5.084;2022-11-20T12:04:16;26.83;;;24.23;;
17566;SDS011;8901;52.088;5.084;2022-11-20T12:06:45;26.90;;;24.37;;
17566;SDS011;8901;52.088;5.084;2022-11-20T12:09:14;29.33;;;26.63;;
17566;SDS011;8901;52.088;5.084;2022-11-20T12:11:43;32.40;;;29.50;;
17566;SDS011;8901;52.088;5.084;2022-11-20T12:14:13;26.57;;;24.03;;
17566;SDS011;8901;52.088;5.084;2022-11-20T12:16:41;27.93;;;25.23;;
17566;SDS011;8901;52.088;5.084;2022-11-20T12:19:10;31.27;;;28.30;;
17566;SDS011;8901;52.088;5.084;2022-11-20T12:21:43;32.43;;;29.27;;
17566;SDS011;8901;52.088;5.084;2022-11-20T12:24:24;34.17;;;30.57;;
17566;SDS011;8901;52.088;5.084;2022-11-20T12:26:59;31.23;;;28.07;;
17566;SDS011;8901;52.088;5.084;2022-11-20T12:29:32;30.03;;;27.07;;
17566;SDS011;8901;52.088;5.084;2022-11-20T12:32:06;29.33;;;26.23;;
17566;SDS011;8901;52.088;5.084;2022-11-20T12:34:43;31.43;;;27.37;;
17566;SDS011;8901;52.088;5.084;2022-11-20T12:37:16;33.53;;;30.23;;
17566;SDS011;8901;52.088;5.084;2022-11-20T12:39:47;32.73;;;29.40;;
17566;SDS011;8901;52.088;5.084;2022-11-20T12:42:34;32.70;;;29.23;;
17566;SDS011;8901;52.088;5.084;2022-11-20T12:48:22;28.67;;;25.60;;
17566;SDS011;8901;52.088;5.084;2022-11-20T12:50:56;27.90;;;25.07;;
17566;SDS011;8901;52.088;5.084;2022-11-20T12:53:31;30.53;;;27.33;;
17566;SDS011;8901;52.088;5.084;2022-11-20T12:56:02;31.77;;;28.53;;
17566;SDS011;8901;52.088;5.084;2022-11-20T12:58:33;28.10;;;25.07;;
17566;SDS011;8901;52.088;5.084;2022-11-20T13:01:03;32.03;;;28.10;;
17566;SDS011;8901;52.088;5.084;2022-11-20T13:03:37;32.30;;;29.00;;
17566;SDS011;8901;52.088;5.084;2022-11-20T13:06:10;32.60;;;29.17;;
17566;SDS011;8901;52.088;5.084;2022-11-20T13:08:40;29.23;;;26.30;;
17566;SDS011;8901;52.088;5.084;2022-11-20T13:11:11;28.60;;;25.80;;
17566;SDS011;8901;52.088;5.084;2022-11-20T13:13:42;27.90;;;25.00;;
17566;SDS011;8901;52.088;5.084;2022-11-20T13:16:23;28.87;;;25.97;;
17566;SDS011;8901;52.088;5.084;2022-11-20T13:18:52;33.37;;;30.03;;
17566;SDS011;8901;52.088;5.084;2022-11-20T13:21:20;29.07;;;25.97;;
17566;SDS011;8901;52.088;5.084;2022-11-20T13:23:49;30.07;;;27.07;;
17566;SDS011;8901;52.088;5.084;2022-11-20T13:26:17;29.10;;;26.30;;
17566;SDS011;8901;52.088;5.084;2022-11-20T13:28:46;32.20;;;29.03;;
17566;SDS011;8901;52.088;5.084;2022-11-20T13:31:24;28.40;;;25.60;;
17566;SDS011;8901;52.088;5.084;2022-11-20T13:33:56;33.83;;;30.50;;
17566;SDS011;8901;52.088;5.084;2022-11-20T13:36:26;33.20;;;29.90;;
17566;SDS011;8901;52.088;5.084;2022-11-20T13:38:55;29.10;;;26.07;;
17566;SDS011;8901;52.088;5.084;2022-11-20T13:41:23;26.17;;;23.53;;
17566;SDS011;8901;52.088;5.084;2022-11-20T13:43:54;28.20;;;25.30;;
17566;SDS011;8901;52.088;5.084;2022-11-20T13:46:34;30.57;;;27.37;;
17566;SDS011;8901;52.088;5.084;2022-11-20T13:49:05;31.40;;;27.93;;
17566;SDS011;8901;52.088;5.084;2022-11-20T13:51:35;32.03;;;28.83;;
17566;SDS011;8901;52.088;5.084;2022-11-20T13:54:30;32.00;;;28.73;;
17566;SDS011;8901;52.088;5.084;2022-11-20T13:57:06;29.63;;;26.47;;
17566;SDS011;8901;52.088;5.084;2022-11-20T13:59:40;30.40;;;27.17;;
17566;SDS011;8901;52.088;5.084;2022-11-20T14:02:11;33.00;;;29.50;;
17566;SDS011;8901;52.088;5.084;2022-11-20T14:04:42;28.77;;;25.67;;
17566;SDS011;8901;52.088;5.084;2022-11-20T14:07:10;28.47;;;25.43;;
17566;SDS011;8901;52.088;5.084;2022-11-20T14:09:49;31.20;;;28.00;;
17566;SDS011;8901;52.088;5.084;2022-11-20T14:14:57;34.27;;;28.60;;
17566;SDS011;8901;52.088;5.084;2022-11-20T14:20:38;31.57;;;28.17;;
17566;SDS011;8901;52.088;5.084;2022-11-20T14:23:24;33.37;;;29.73;;
17566;SDS011;8901;52.088;5.084;2022-11-20T14:26:02;30.93;;;27.20;;
17566;SDS011;8901;52.088;5.084;2022-11-20T14:28:32;30.20;;;26.93;;
17566;SDS011;8901;52.088;5.084;2022-11-20T14:31:00;30.70;;;26.30;;
17566;SDS011;8901;52.088;5.084;2022-11-20T14:33:37;31.20;;;27.87;;
17566;SDS011;8901;52.088;5.084;2022-11-20T14:36:04;28.77;;;25.67;;
17566;SDS011;8901;52.088;5.084;2022-11-20T14:38:33;33.23;;;29.13;;
17566;SDS011;8901;52.088;5.084;2022-11-20T14:41:17;33.10;;;27.90;;
17566;SDS011;8901;52.088;5.084;2022-11-20T14:43:46;29.67;;;26.43;;
17566;SDS011;8901;52.088;5.084;2022-11-20T14:46:14;35.10;;;29.43;;
17566;SDS011;8901;52.088;5.084;2022-11-20T14:48:43;31.37;;;27.50;;
17566;SDS011;8901;52.088;5.084;2022-11-20T14:51:16;32.13;;;27.50;;
17566;SDS011;8901;52.088;5.084;2022-11-20T14:53:50;33.60;;;28.33;;
17566;SDS011;8901;52.088;5.084;2022-11-20T14:58:58;32.53;;;28.03;;
17566;SDS011;8901;52.088;5.084;2022-11-20T15:01:28;28.63;;;23.00;;
17566;SDS011;8901;52.088;5.084;2022-11-20T15:04:05;30.67;;;25.87;;
17566;SDS011;8901;52.088;5.084;2022-11-20T15:06:32;27.77;;;24.47;;
17566;SDS011;8901;52.088;5.084;2022-11-20T15:09:01;29.30;;;25.37;;
17566;SDS011;8901;52.088;5.084;2022-11-20T15:11:30;27.07;;;24.17;;
17566;SDS011;8901;52.088;5.084;2022-11-20T15:13:59;27.97;;;24.50;;
17566;SDS011;8901;52.088;5.084;2022-11-20T15:16:30;30.27;;;26.73;;
17566;SDS011;8901;52.088;5.084;2022-11-20T15:18:59;29.87;;;25.97;;
17566;SDS011;8901;52.088;5.084;2022-11-20T15:21:27;30.63;;;27.27;;
17566;SDS011;8901;52.088;5.084;2022-11-20T15:23:54;29.03;;;26.03;;
17566;SDS011;8901;52.088;5.084;2022-11-20T15:26:22;28.43;;;25.20;;
17566;SDS011;8901;52.088;5.084;2022-11-20T15:28:50;25.00;;;22.30;;
17566;SDS011;8901;52.088;5.084;2022-11-20T15:31:20;28.80;;;24.80;;
17566;SDS011;8901;52.088;5.084;2022-11-20T15:33:48;27.53;;;24.33;;
17566;SDS011;8901;52.088;5.084;2022-11-20T15:36:15;31.23;;;26.23;;
17566;SDS011;8901;52.088;5.084;2022-11-20T15:38:44;26.47;;;23.03;;
17566;SDS011;8901;52.088;5.084;2022-11-20T15:41:12;27.50;;;23.63;;
17566;SDS011;8901;52.088;5.084;2022-11-20T15:43:39;28.00;;;25.10;;
17566;SDS011;8901;52.088;5.084;2022-11-20T15:46:09;27.23;;;24.43;;
17566;SDS011;8901;52.088;5.084;2022-11-20T15:48:38;23.77;;;19.23;;
17566;SDS011;8901;52.088;5.084;2022-11-20T15:51:06;26.17;;;23.37;;
17566;SDS011;8901;52.088;5.084;2022-11-20T15:53:39;24.77;;;21.20;;
17566;SDS011;8901;52.088;5.084;2022-11-20T15:56:08;27.23;;;24.43;;
17566;SDS011;8901;52.088;5.084;2022-11-20T15:58:38;27.87;;;24.97;;
17566;SDS011;8901;52.088;5.084;2022-11-20T16:01:05;24.27;;;21.70;;
17566;SDS011;8901;52.088;5.084;2022-11-20T16:03:32;24.03;;;21.53;;
17566;SDS011;8901;52.088;5.084;2022-11-20T16:06:01;24.90;;;22.40;;
17566;SDS011;8901;52.088;5.084;2022-11-20T16:08:28;22.43;;;20.17;;
17566;SDS011;8901;52.088;5.084;2022-11-20T16:10:55;27.73;;;24.67;;
17566;SDS011;8901;52.088;5.084;2022-11-20T16:13:24;28.00;;;25.13;;